sensor_id;sensor_type;location;lat;lon;timestamp;temperature;humidity
31837;DHT22;18401;49.344;6.240;2023-12-07T00:01:03;2.80;99.90
31837;DHT22;18401;49.344;6.240;2023-12-07T00:03:28;2.80;99.90
31837;DHT22;18401;49.344;6.240;2023-12-07T00:05:54;2.80;99.90
31837;DHT22;18401;49.344;6.240;2023-12-07T00:08:19;2.80;99.90
31837;DHT22;18401;49.344;6.240;2023-12-07T00:10:45;2.80;99.90
31837;DHT22;18401;49.344;6.240;2023-12-07T00:13:11;2.90;99.90
31837;DHT22;18401;49.344;6.240;2023-12-07T00:15:36;2.80;99.90
31837;DHT22;18401;49.344;6.240;2023-12-07T00:18:02;2.80;99.90
31837;DHT22;18401;49.344;6.240;2023-12-07T00:20:29;2.80;99.90
31837;DHT22;18401;49.344;6.240;2023-12-07T00:22:54;2.70;99.90
31837;DHT22;18401;49.344;6.240;2023-12-07T00:25:21;2.60;99.90
31837;DHT22;18401;49.344;6.240;2023-12-07T00:27:47;2.60;99.90
31837;DHT22;18401;49.344;6.240;2023-12-07T00:30:13;2.50;99.90
31837;DHT22;18401;49.344;6.240;2023-12-07T00:32:39;2.50;99.90
31837;DHT22;18401;49.344;6.240;2023-12-07T00:35:08;2.50;99.90
31837;DHT22;18401;49.344;6.240;2023-12-07T00:37:34;2.50;99.90
31837;DHT22;18401;49.344;6.240;2023-12-07T00:40:00;2.40;99.90
31837;DHT22;18401;49.344;6.240;2023-12-07T00:42:26;2.40;99.90
31837;DHT22;18401;49.344;6.240;2023-12-07T00:44:52;2.40;99.90
31837;DHT22;18401;49.344;6.240;2023-12-07T00:47:17;2.40;99.90
31837;DHT22;18401;49.344;6.240;2023-12-07T00:49:43;2.50;99.90
31837;DHT22;18401;49.344;6.240;2023-12-07T00:52:09;2.50;99.90
31837;DHT22;18401;49.344;6.240;2023-12-07T00:54:34;2.50;99.90
31837;DHT22;18401;49.344;6.240;2023-12-07T00:57:00;2.50;99.90
31837;DHT22;18401;49.344;6.240;2023-12-07T00:59:26;2.40;99.90
31837;DHT22;18401;49.344;6.240;2023-12-07T01:01:51;2.40;99.90
31837;DHT22;18401;49.344;6.240;2023-12-07T01:04:17;2.30;99.90
31837;DHT22;18401;49.344;6.240;2023-12-07T01:06:43;2.20;99.90
31837;DHT22;18401;49.344;6.240;2023-12-07T01:09:09;2.20;99.90
31837;DHT22;18401;49.344;6.240;2023-12-07T01:11:39;2.20;99.90
31837;DHT22;18401;49.344;6.240;2023-12-07T01:14:06;2.20;99.90
31837;DHT22;18401;49.344;6.240;2023-12-07T01:16:31;2.20;99.90
31837;DHT22;18401;49.344;6.240;2023-12-07T01:18:57;2.10;99.90
31837;DHT22;18401;49.344;6.240;2023-12-07T01:21:23;2.10;99.90
31837;DHT22;18401;49.344;6.240;2023-12-07T01:23:49;2.10;99.90
31837;DHT22;18401;49.344;6.240;2023-12-07T01:26:14;2.20;99.90
31837;DHT22;18401;49.344;6.240;2023-12-07T01:28:40;2.20;99.90
31837;DHT22;18401;49.344;6.240;2023-12-07T01:31:06;2.20;99.90
31837;DHT22;18401;49.344;6.240;2023-12-07T01:33:31;2.20;99.90
31837;DHT22;18401;49.344;6.240;2023-12-07T01:35:57;1.90;99.90
31837;DHT22;18401;49.344;6.240;2023-12-07T01:38:23;1.60;99.90
31837;DHT22;18401;49.344;6.240;2023-12-07T01:40:48;1.50;99.90
31837;DHT22;18401;49.344;6.240;2023-12-07T01:43:14;1.30;99.90
31837;DHT22;18401;49.344;6.240;2023-12-07T01:45:40;1.10;99.90
31837;DHT22;18401;49.344;6.240;2023-12-07T01:48:06;1.00;99.90
31837;DHT22;18401;49.344;6.240;2023-12-07T01:50:32;1.00;99.90
31837;DHT22;18401;49.344;6.240;2023-12-07T01:53:01;1.10;99.90
31837;DHT22;18401;49.344;6.240;2023-12-07T01:55:27;1.30;99.90
31837;DHT22;18401;49.344;6.240;2023-12-07T01:57:54;1.40;99.90
31837;DHT22;18401;49.344;6.240;2023-12-07T02:00:20;1.50;99.90
31837;DHT22;18401;49.344;6.240;2023-12-07T02:02:47;1.50;99.90
31837;DHT22;18401;49.344;6.240;2023-12-07T02:05:13;1.60;99.90
31837;DHT22;18401;49.344;6.240;2023-12-07T02:07:41;1.60;99.90
31837;DHT22;18401;49.344;6.240;2023-12-07T02:10:07;1.60;99.90
31837;DHT22;18401;49.344;6.240;2023-12-07T02:12:33;1.70;99.90
31837;DHT22;18401;49.344;6.240;2023-12-07T02:15:02;1.60;99.90
31837;DHT22;18401;49.344;6.240;2023-12-07T02:20:41;1.70;99.90
31837;DHT22;18401;49.344;6.240;2023-12-07T02:23:01;1.70;99.90
31837;DHT22;18401;49.344;6.240;2023-12-07T02:25:46;1.80;99.90
31837;DHT22;18401;49.344;6.240;2023-12-07T02:28:13;1.90;99.90
31837;DHT22;18401;49.344;6.240;2023-12-07T02:30:39;1.90;99.90
31837;DHT22;18401;49.344;6.240;2023-12-07T02:33:06;1.90;99.90
31837;DHT22;18401;49.344;6.240;2023-12-07T02:35:32;1.90;99.90
31837;DHT22;18401;49.344;6.240;2023-12-07T02:37:58;1.90;99.90
31837;DHT22;18401;49.344;6.240;2023-12-07T02:40:25;2.00;99.90
31837;DHT22;18401;49.344;6.240;2023-12-07T02:42:56;2.00;99.90
31837;DHT22;18401;49.344;6.240;2023-12-07T02:45:21;2.00;99.90
31837;DHT22;18401;49.344;6.240;2023-12-07T02:47:47;2.00;99.90
31837;DHT22;18401;49.344;6.240;2023-12-07T02:50:13;2.00;99.90
31837;DHT22;18401;49.344;6.240;2023-12-07T02:52:40;2.10;99.90
31837;DHT22;18401;49.344;6.240;2023-12-07T02:55:06;2.20;99.90
31837;DHT22;18401;49.344;6.240;2023-12-07T02:57:32;2.20;99.90
31837;DHT22;18401;49.344;6.240;2023-12-07T02:59:59;2.20;99.90
31837;DHT22;18401;49.344;6.240;2023-12-07T03:02:25;2.20;99.90
31837;DHT22;18401;49.344;6.240;2023-12-07T03:04:51;2.20;99.90
31837;DHT22;18401;49.344;6.240;2023-12-07T03:07:16;2.20;99.90
31837;DHT22;18401;49.344;6.240;2023-12-07T03:09:42;2.20;99.90
31837;DHT22;18401;49.344;6.240;2023-12-07T03:12:08;2.30;99.90
31837;DHT22;18401;49.344;6.240;2023-12-07T03:14:33;2.30;99.90
31837;DHT22;18401;49.344;6.240;2023-12-07T03:16:59;2.40;99.90
31837;DHT22;18401;49.344;6.240;2023-12-07T03:19:25;2.40;99.90
31837;DHT22;18401;49.344;6.240;2023-12-07T03:21:50;2.40;99.90
31837;DHT22;18401;49.344;6.240;2023-12-07T03:24:16;2.40;99.90
31837;DHT22;18401;49.344;6.240;2023-12-07T03:26:42;2.40;99.90
31837;DHT22;18401;49.344;6.240;2023-12-07T03:29:07;2.40;99.90
31837;DHT22;18401;49.344;6.240;2023-12-07T03:31:33;2.40;99.90
31837;DHT22;18401;49.344;6.240;2023-12-07T03:33:59;2.40;99.90
31837;DHT22;18401;49.344;6.240;2023-12-07T03:36:26;2.40;99.90
31837;DHT22;18401;49.344;6.240;2023-12-07T03:38:52;2.40;99.90
31837;DHT22;18401;49.344;6.240;2023-12-07T03:41:18;2.40;99.90
31837;DHT22;18401;49.344;6.240;2023-12-07T03:43:44;2.50;99.90
31837;DHT22;18401;49.344;6.240;2023-12-07T03:46:09;2.40;99.90
31837;DHT22;18401;49.344;6.240;2023-12-07T03:48:35;2.50;99.90
31837;DHT22;18401;49.344;6.240;2023-12-07T03:51:01;2.60;99.90
31837;DHT22;18401;49.344;6.240;2023-12-07T03:53:28;2.40;99.90
31837;DHT22;18401;49.344;6.240;2023-12-07T03:55:54;2.30;99.90
31837;DHT22;18401;49.344;6.240;2023-12-07T03:58:19;2.30;99.90
31837;DHT22;18401;49.344;6.240;2023-12-07T04:00:45;2.30;99.90
31837;DHT22;18401;49.344;6.240;2023-12-07T04:03:11;2.30;99.90
31837;DHT22;18401;49.344;6.240;2023-12-07T04:05:37;2.30;99.90
31837;DHT22;18401;49.344;6.240;2023-12-07T04:08:03;2.30;99.90
31837;DHT22;18401;49.344;6.240;2023-12-07T04:10:30;2.40;99.90
31837;DHT22;18401;49.344;6.240;2023-12-07T04:12:56;2.40;99.90
31837;DHT22;18401;49.344;6.240;2023-12-07T04:15:22;2.40;99.90
31837;DHT22;18401;49.344;6.240;2023-12-07T04:17:48;2.40;99.90
31837;DHT22;18401;49.344;6.240;2023-12-07T04:20:14;2.40;99.90
31837;DHT22;18401;49.344;6.240;2023-12-07T04:22:40;2.40;99.90
31837;DHT22;18401;49.344;6.240;2023-12-07T04:25:06;2.40;99.90
31837;DHT22;18401;49.344;6.240;2023-12-07T04:27:33;2.40;99.90
31837;DHT22;18401;49.344;6.240;2023-12-07T04:29:58;2.40;99.90
31837;DHT22;18401;49.344;6.240;2023-12-07T04:32:24;2.30;99.90
31837;DHT22;18401;49.344;6.240;2023-12-07T04:34:50;2.30;99.90
31837;DHT22;18401;49.344;6.240;2023-12-07T04:37:15;2.30;99.90
31837;DHT22;18401;49.344;6.240;2023-12-07T04:39:41;2.30;99.90
31837;DHT22;18401;49.344;6.240;2023-12-07T04:42:07;2.30;99.90
31837;DHT22;18401;49.344;6.240;2023-12-07T04:44:32;2.20;99.90
31837;DHT22;18401;49.344;6.240;2023-12-07T04:46:58;2.20;99.90
31837;DHT22;18401;49.344;6.240;2023-12-07T04:49:24;2.20;99.90
31837;DHT22;18401;49.344;6.240;2023-12-07T04:51:49;2.20;99.90
31837;DHT22;18401;49.344;6.240;2023-12-07T04:54:15;2.20;99.90
31837;DHT22;18401;49.344;6.240;2023-12-07T04:56:41;2.20;99.90
31837;DHT22;18401;49.344;6.240;2023-12-07T04:59:08;2.10;99.90
31837;DHT22;18401;49.344;6.240;2023-12-07T05:01:36;2.10;99.90
31837;DHT22;18401;49.344;6.240;2023-12-07T05:04:02;2.10;99.90
31837;DHT22;18401;49.344;6.240;2023-12-07T05:06:29;2.10;99.90
31837;DHT22;18401;49.344;6.240;2023-12-07T05:08:55;2.10;99.90
31837;DHT22;18401;49.344;6.240;2023-12-07T05:11:21;2.10;99.90
31837;DHT22;18401;49.344;6.240;2023-12-07T05:13:46;2.00;99.90
31837;DHT22;18401;49.344;6.240;2023-12-07T05:16:13;1.80;99.90
31837;DHT22;18401;49.344;6.240;2023-12-07T05:18:39;1.90;99.90
31837;DHT22;18401;49.344;6.240;2023-12-07T05:21:05;1.90;99.90
31837;DHT22;18401;49.344;6.240;2023-12-07T05:23:31;1.90;99.90
31837;DHT22;18401;49.344;6.240;2023-12-07T05:25:57;2.00;99.90
31837;DHT22;18401;49.344;6.240;2023-12-07T05:28:22;2.00;99.90
31837;DHT22;18401;49.344;6.240;2023-12-07T05:30:48;2.00;99.90
31837;DHT22;18401;49.344;6.240;2023-12-07T05:33:14;2.00;99.90
31837;DHT22;18401;49.344;6.240;2023-12-07T05:35:40;1.90;99.90
31837;DHT22;18401;49.344;6.240;2023-12-07T05:38:05;1.90;99.90
31837;DHT22;18401;49.344;6.240;2023-12-07T05:40:31;1.90;99.90
31837;DHT22;18401;49.344;6.240;2023-12-07T05:42:57;1.90;99.90
31837;DHT22;18401;49.344;6.240;2023-12-07T05:45:22;1.90;99.90
31837;DHT22;18401;49.344;6.240;2023-12-07T05:47:48;1.90;99.90
31837;DHT22;18401;49.344;6.240;2023-12-07T05:50:14;1.90;99.90
31837;DHT22;18401;49.344;6.240;2023-12-07T05:52:40;1.90;99.90
31837;DHT22;18401;49.344;6.240;2023-12-07T05:55:06;1.80;99.90
31837;DHT22;18401;49.344;6.240;2023-12-07T05:57:32;1.90;99.90
31837;DHT22;18401;49.344;6.240;2023-12-07T05:59:57;1.70;99.90
31837;DHT22;18401;49.344;6.240;2023-12-07T06:02:23;1.60;99.90
31837;DHT22;18401;49.344;6.240;2023-12-07T06:04:49;1.60;99.90
31837;DHT22;18401;49.344;6.240;2023-12-07T06:07:15;1.70;99.90
31837;DHT22;18401;49.344;6.240;2023-12-07T06:09:41;1.70;99.90
31837;DHT22;18401;49.344;6.240;2023-12-07T06:12:07;1.70;99.90
31837;DHT22;18401;49.344;6.240;2023-12-07T06:14:32;1.70;99.90
31837;DHT22;18401;49.344;6.240;2023-12-07T06:16:58;1.70;99.90
31837;DHT22;18401;49.344;6.240;2023-12-07T06:19:24;1.70;99.90
31837;DHT22;18401;49.344;6.240;2023-12-07T06:21:50;1.70;99.90
31837;DHT22;18401;49.344;6.240;2023-12-07T06:24:16;1.70;99.90
31837;DHT22;18401;49.344;6.240;2023-12-07T06:26:41;1.70;99.90
31837;DHT22;18401;49.344;6.240;2023-12-07T06:29:07;1.70;99.90
31837;DHT22;18401;49.344;6.240;2023-12-07T06:31:33;1.70;99.90
31837;DHT22;18401;49.344;6.240;2023-12-07T06:33:59;1.70;99.90
31837;DHT22;18401;49.344;6.240;2023-12-07T06:36:26;1.60;99.90
31837;DHT22;18401;49.344;6.240;2023-12-07T06:38:52;1.70;99.90
31837;DHT22;18401;49.344;6.240;2023-12-07T06:41:18;1.60;99.90
31837;DHT22;18401;49.344;6.240;2023-12-07T06:43:44;1.60;99.90
31837;DHT22;18401;49.344;6.240;2023-12-07T06:46:13;1.60;99.90
31837;DHT22;18401;49.344;6.240;2023-12-07T06:48:40;1.50;99.90
31837;DHT22;18401;49.344;6.240;2023-12-07T06:51:05;1.50;99.90
31837;DHT22;18401;49.344;6.240;2023-12-07T06:53:31;1.40;99.90
31837;DHT22;18401;49.344;6.240;2023-12-07T06:55:57;1.40;99.90
31837;DHT22;18401;49.344;6.240;2023-12-07T06:58:23;1.40;99.90
31837;DHT22;18401;49.344;6.240;2023-12-07T07:00:48;1.30;99.90
31837;DHT22;18401;49.344;6.240;2023-12-07T07:03:15;1.40;99.90
31837;DHT22;18401;49.344;6.240;2023-12-07T07:05:41;1.30;99.90
31837;DHT22;18401;49.344;6.240;2023-12-07T07:08:06;1.40;99.90
31837;DHT22;18401;49.344;6.240;2023-12-07T07:10:34;1.40;99.90
31837;DHT22;18401;49.344;6.240;2023-12-07T07:13:03;1.40;99.90
31837;DHT22;18401;49.344;6.240;2023-12-07T07:15:30;1.40;99.90
31837;DHT22;18401;49.344;6.240;2023-12-07T07:17:56;1.50;99.90
31837;DHT22;18401;49.344;6.240;2023-12-07T07:20:22;1.40;99.90
31837;DHT22;18401;49.344;6.240;2023-12-07T07:22:47;1.40;99.90
31837;DHT22;18401;49.344;6.240;2023-12-07T07:25:13;1.40;99.90
31837;DHT22;18401;49.344;6.240;2023-12-07T07:27:41;1.40;99.90
31837;DHT22;18401;49.344;6.240;2023-12-07T07:30:08;1.40;99.90
31837;DHT22;18401;49.344;6.240;2023-12-07T07:32:34;1.40;99.90
31837;DHT22;18401;49.344;6.240;2023-12-07T07:35:00;1.40;99.90
31837;DHT22;18401;49.344;6.240;2023-12-07T07:37:25;1.40;99.90
31837;DHT22;18401;49.344;6.240;2023-12-07T07:39:51;1.40;99.90
31837;DHT22;18401;49.344;6.240;2023-12-07T07:42:17;1.30;99.90
31837;DHT22;18401;49.344;6.240;2023-12-07T07:44:43;1.40;99.90
31837;DHT22;18401;49.344;6.240;2023-12-07T07:47:08;1.30;99.90
31837;DHT22;18401;49.344;6.240;2023-12-07T07:49:34;1.20;99.90
31837;DHT22;18401;49.344;6.240;2023-12-07T07:51:59;1.20;99.90
31837;DHT22;18401;49.344;6.240;2023-12-07T07:54:26;1.20;99.90
31837;DHT22;18401;49.344;6.240;2023-12-07T07:56:51;1.30;99.90
31837;DHT22;18401;49.344;6.240;2023-12-07T07:59:17;1.30;99.90
31837;DHT22;18401;49.344;6.240;2023-12-07T08:01:43;1.40;99.90
31837;DHT22;18401;49.344;6.240;2023-12-07T08:04:12;1.30;99.90
31837;DHT22;18401;49.344;6.240;2023-12-07T08:06:37;1.30;99.90
31837;DHT22;18401;49.344;6.240;2023-12-07T08:09:03;1.30;99.90
31837;DHT22;18401;49.344;6.240;2023-12-07T08:11:29;1.30;99.90
31837;DHT22;18401;49.344;6.240;2023-12-07T08:13:56;1.30;99.90
31837;DHT22;18401;49.344;6.240;2023-12-07T08:16:22;1.30;99.90
31837;DHT22;18401;49.344;6.240;2023-12-07T08:18:48;1.30;99.90
31837;DHT22;18401;49.344;6.240;2023-12-07T08:21:23;1.20;99.90
31837;DHT22;18401;49.344;6.240;2023-12-07T08:23:51;1.30;99.90
31837;DHT22;18401;49.344;6.240;2023-12-07T08:26:17;1.30;99.90
31837;DHT22;18401;49.344;6.240;2023-12-07T08:28:43;1.30;99.90
31837;DHT22;18401;49.344;6.240;2023-12-07T08:31:10;1.30;99.90
31837;DHT22;18401;49.344;6.240;2023-12-07T08:33:35;1.40;99.90
31837;DHT22;18401;49.344;6.240;2023-12-07T08:36:02;1.30;99.90
31837;DHT22;18401;49.344;6.240;2023-12-07T08:38:27;1.30;99.90
31837;DHT22;18401;49.344;6.240;2023-12-07T08:40:53;1.40;99.90
31837;DHT22;18401;49.344;6.240;2023-12-07T08:43:21;1.30;99.90
31837;DHT22;18401;49.344;6.240;2023-12-07T08:45:48;1.30;99.90
31837;DHT22;18401;49.344;6.240;2023-12-07T08:48:14;1.30;99.90
31837;DHT22;18401;49.344;6.240;2023-12-07T08:50:40;1.40;99.90
31837;DHT22;18401;49.344;6.240;2023-12-07T08:53:06;1.30;99.90
31837;DHT22;18401;49.344;6.240;2023-12-07T08:55:32;1.30;99.90
31837;DHT22;18401;49.344;6.240;2023-12-07T08:57:57;1.40;99.90
31837;DHT22;18401;49.344;6.240;2023-12-07T09:00:25;1.40;99.90
31837;DHT22;18401;49.344;6.240;2023-12-07T09:02:51;1.50;99.90
31837;DHT22;18401;49.344;6.240;2023-12-07T09:05:17;1.40;99.90
31837;DHT22;18401;49.344;6.240;2023-12-07T09:07:44;1.50;99.90
31837;DHT22;18401;49.344;6.240;2023-12-07T09:10:10;1.50;99.90
31837;DHT22;18401;49.344;6.240;2023-12-07T09:12:36;1.50;99.90
31837;DHT22;18401;49.344;6.240;2023-12-07T09:15:02;1.60;99.90
31837;DHT22;18401;49.344;6.240;2023-12-07T09:17:28;1.60;99.90
31837;DHT22;18401;49.344;6.240;2023-12-07T09:19:54;1.70;99.90
31837;DHT22;18401;49.344;6.240;2023-12-07T09:22:20;1.70;99.90
31837;DHT22;18401;49.344;6.240;2023-12-07T09:24:46;1.70;99.90
31837;DHT22;18401;49.344;6.240;2023-12-07T09:27:15;1.60;99.90
31837;DHT22;18401;49.344;6.240;2023-12-07T09:29:41;1.70;99.90
31837;DHT22;18401;49.344;6.240;2023-12-07T09:32:07;1.80;99.90
31837;DHT22;18401;49.344;6.240;2023-12-07T09:34:33;1.80;99.90
31837;DHT22;18401;49.344;6.240;2023-12-07T09:37:06;1.80;99.90
31837;DHT22;18401;49.344;6.240;2023-12-07T09:39:32;1.90;99.90
31837;DHT22;18401;49.344;6.240;2023-12-07T09:41:58;1.70;99.90
31837;DHT22;18401;49.344;6.240;2023-12-07T09:44:24;1.90;99.90
31837;DHT22;18401;49.344;6.240;2023-12-07T09:46:49;1.90;99.90
31837;DHT22;18401;49.344;6.240;2023-12-07T09:49:15;1.70;99.90
31837;DHT22;18401;49.344;6.240;2023-12-07T09:51:42;1.80;99.90
31837;DHT22;18401;49.344;6.240;2023-12-07T09:54:08;1.90;99.90
31837;DHT22;18401;49.344;6.240;2023-12-07T09:56:34;1.90;99.90
31837;DHT22;18401;49.344;6.240;2023-12-07T09:59:00;1.90;99.90
31837;DHT22;18401;49.344;6.240;2023-12-07T10:01:29;2.00;99.90
31837;DHT22;18401;49.344;6.240;2023-12-07T10:04:15;2.10;99.90
31837;DHT22;18401;49.344;6.240;2023-12-07T10:06:43;2.20;99.90
31837;DHT22;18401;49.344;6.240;2023-12-07T10:09:09;2.40;99.90
31837;DHT22;18401;49.344;6.240;2023-12-07T10:11:36;2.50;99.90
31837;DHT22;18401;49.344;6.240;2023-12-07T10:14:02;2.60;99.90
31837;DHT22;18401;49.344;6.240;2023-12-07T10:16:28;2.70;99.90
31837;DHT22;18401;49.344;6.240;2023-12-07T10:18:53;2.80;99.90
31837;DHT22;18401;49.344;6.240;2023-12-07T10:21:31;2.60;99.90
31837;DHT22;18401;49.344;6.240;2023-12-07T10:23:57;2.60;99.90
31837;DHT22;18401;49.344;6.240;2023-12-07T10:26:23;2.70;99.90
31837;DHT22;18401;49.344;6.240;2023-12-07T10:28:52;2.90;99.90
31837;DHT22;18401;49.344;6.240;2023-12-07T10:31:19;2.90;99.90
31837;DHT22;18401;49.344;6.240;2023-12-07T10:33:50;2.80;99.90
31837;DHT22;18401;49.344;6.240;2023-12-07T10:36:15;3.00;99.90
31837;DHT22;18401;49.344;6.240;2023-12-07T10:38:42;3.10;99.90
31837;DHT22;18401;49.344;6.240;2023-12-07T10:41:09;2.90;99.90
31837;DHT22;18401;49.344;6.240;2023-12-07T10:43:37;2.90;99.90
31837;DHT22;18401;49.344;6.240;2023-12-07T10:46:05;2.90;99.90
31837;DHT22;18401;49.344;6.240;2023-12-07T10:48:32;3.20;99.90
31837;DHT22;18401;49.344;6.240;2023-12-07T10:51:00;3.10;99.90
31837;DHT22;18401;49.344;6.240;2023-12-07T10:53:27;3.30;99.90
31837;DHT22;18401;49.344;6.240;2023-12-07T10:55:57;3.20;99.90
31837;DHT22;18401;49.344;6.240;2023-12-07T10:58:24;3.20;99.90
31837;DHT22;18401;49.344;6.240;2023-12-07T11:00:52;3.40;99.90
31837;DHT22;18401;49.344;6.240;2023-12-07T11:03:18;3.20;99.90
31837;DHT22;18401;49.344;6.240;2023-12-07T11:05:47;3.30;99.90
31837;DHT22;18401;49.344;6.240;2023-12-07T11:08:31;3.20;99.90
31837;DHT22;18401;49.344;6.240;2023-12-07T11:11:12;3.30;99.90
31837;DHT22;18401;49.344;6.240;2023-12-07T11:13:46;3.60;99.90
31837;DHT22;18401;49.344;6.240;2023-12-07T11:16:15;3.70;99.90
31837;DHT22;18401;49.344;6.240;2023-12-07T11:18:40;3.80;99.90
31837;DHT22;18401;49.344;6.240;2023-12-07T11:21:06;4.20;99.90
31837;DHT22;18401;49.344;6.240;2023-12-07T11:23:32;4.40;99.90
31837;DHT22;18401;49.344;6.240;2023-12-07T11:25:58;4.20;99.90
31837;DHT22;18401;49.344;6.240;2023-12-07T11:28:38;4.00;99.90
31837;DHT22;18401;49.344;6.240;2023-12-07T11:31:06;3.90;99.90
31837;DHT22;18401;49.344;6.240;2023-12-07T11:33:32;4.50;99.90
31837;DHT22;18401;49.344;6.240;2023-12-07T11:36:05;4.80;99.90
31837;DHT22;18401;49.344;6.240;2023-12-07T11:38:31;5.20;99.90
31837;DHT22;18401;49.344;6.240;2023-12-07T11:40:57;4.30;99.90
31837;DHT22;18401;49.344;6.240;2023-12-07T11:43:44;4.10;99.90
31837;DHT22;18401;49.344;6.240;2023-12-07T11:46:11;4.10;99.90
31837;DHT22;18401;49.344;6.240;2023-12-07T11:48:37;4.20;99.90
31837;DHT22;18401;49.344;6.240;2023-12-07T11:51:07;4.20;99.90
31837;DHT22;18401;49.344;6.240;2023-12-07T11:53:37;4.40;99.90
31837;DHT22;18401;49.344;6.240;2023-12-07T11:56:05;4.40;99.90
31837;DHT22;18401;49.344;6.240;2023-12-07T11:58:32;4.60;99.90
31837;DHT22;18401;49.344;6.240;2023-12-07T12:00:59;4.60;99.90
31837;DHT22;18401;49.344;6.240;2023-12-07T12:03:26;4.90;99.90
31837;DHT22;18401;49.344;6.240;2023-12-07T12:05:51;5.10;99.90
31837;DHT22;18401;49.344;6.240;2023-12-07T12:08:18;5.10;99.90
31837;DHT22;18401;49.344;6.240;2023-12-07T12:10:45;4.90;99.90
31837;DHT22;18401;49.344;6.240;2023-12-07T12:13:11;4.50;99.90
31837;DHT22;18401;49.344;6.240;2023-12-07T12:15:38;4.20;99.90
31837;DHT22;18401;49.344;6.240;2023-12-07T12:18:05;4.00;99.90
31837;DHT22;18401;49.344;6.240;2023-12-07T12:20:31;3.90;99.90
31837;DHT22;18401;49.344;6.240;2023-12-07T12:22:58;4.10;99.90
31837;DHT22;18401;49.344;6.240;2023-12-07T12:25:25;4.10;99.90
31837;DHT22;18401;49.344;6.240;2023-12-07T12:28:01;4.00;99.90
31837;DHT22;18401;49.344;6.240;2023-12-07T12:30:28;4.00;99.90
31837;DHT22;18401;49.344;6.240;2023-12-07T12:32:54;4.00;99.90
31837;DHT22;18401;49.344;6.240;2023-12-07T12:35:19;4.10;99.90
31837;DHT22;18401;49.344;6.240;2023-12-07T12:37:46;4.10;99.90
31837;DHT22;18401;49.344;6.240;2023-12-07T12:40:13;4.20;99.90
31837;DHT22;18401;49.344;6.240;2023-12-07T12:42:42;4.20;99.90
31837;DHT22;18401;49.344;6.240;2023-12-07T12:45:09;4.20;99.90
31837;DHT22;18401;49.344;6.240;2023-12-07T12:47:36;4.20;99.90
31837;DHT22;18401;49.344;6.240;2023-12-07T12:50:02;4.20;99.90
31837;DHT22;18401;49.344;6.240;2023-12-07T12:52:30;4.20;99.90
31837;DHT22;18401;49.344;6.240;2023-12-07T12:54:56;4.20;99.90
31837;DHT22;18401;49.344;6.240;2023-12-07T12:57:23;4.20;99.90
31837;DHT22;18401;49.344;6.240;2023-12-07T12:59:50;4.20;99.90
31837;DHT22;18401;49.344;6.240;2023-12-07T13:02:16;4.10;99.90
31837;DHT22;18401;49.344;6.240;2023-12-07T13:04:42;4.10;99.90
31837;DHT22;18401;49.344;6.240;2023-12-07T13:07:08;4.00;99.90
31837;DHT22;18401;49.344;6.240;2023-12-07T13:09:34;4.00;99.90
31837;DHT22;18401;49.344;6.240;2023-12-07T13:12:00;3.90;99.90
31837;DHT22;18401;49.344;6.240;2023-12-07T13:14:26;3.90;99.90
31837;DHT22;18401;49.344;6.240;2023-12-07T13:16:52;3.90;99.90
31837;DHT22;18401;49.344;6.240;2023-12-07T13:19:18;3.80;99.90
31837;DHT22;18401;49.344;6.240;2023-12-07T13:21:45;3.80;99.90
31837;DHT22;18401;49.344;6.240;2023-12-07T13:24:11;3.90;99.90
31837;DHT22;18401;49.344;6.240;2023-12-07T13:26:38;3.90;99.90
31837;DHT22;18401;49.344;6.240;2023-12-07T13:29:04;3.90;99.90
31837;DHT22;18401;49.344;6.240;2023-12-07T13:31:30;3.90;99.90
31837;DHT22;18401;49.344;6.240;2023-12-07T13:33:56;3.80;99.90
31837;DHT22;18401;49.344;6.240;2023-12-07T13:36:22;3.90;99.90
31837;DHT22;18401;49.344;6.240;2023-12-07T13:38:51;4.00;99.90
31837;DHT22;18401;49.344;6.240;2023-12-07T13:41:16;4.00;99.90
31837;DHT22;18401;49.344;6.240;2023-12-07T13:43:42;4.00;99.90
31837;DHT22;18401;49.344;6.240;2023-12-07T13:46:08;4.10;99.90
31837;DHT22;18401;49.344;6.240;2023-12-07T13:48:34;4.10;99.90
31837;DHT22;18401;49.344;6.240;2023-12-07T13:51:00;4.10;99.90
31837;DHT22;18401;49.344;6.240;2023-12-07T13:53:26;4.00;99.90
31837;DHT22;18401;49.344;6.240;2023-12-07T13:55:51;4.00;99.90
31837;DHT22;18401;49.344;6.240;2023-12-07T13:58:17;4.00;99.90
31837;DHT22;18401;49.344;6.240;2023-12-07T14:00:43;3.90;99.90
31837;DHT22;18401;49.344;6.240;2023-12-07T14:03:12;3.90;99.90
31837;DHT22;18401;49.344;6.240;2023-12-07T14:05:40;3.90;99.90
31837;DHT22;18401;49.344;6.240;2023-12-07T14:08:07;3.90;99.90
31837;DHT22;18401;49.344;6.240;2023-12-07T14:10:33;3.80;99.90
31837;DHT22;18401;49.344;6.240;2023-12-07T14:13:00;3.80;99.90
31837;DHT22;18401;49.344;6.240;2023-12-07T14:15:26;3.80;99.90
31837;DHT22;18401;49.344;6.240;2023-12-07T14:17:52;3.80;99.90
31837;DHT22;18401;49.344;6.240;2023-12-07T14:20:18;3.80;99.90
31837;DHT22;18401;49.344;6.240;2023-12-07T14:22:46;3.90;99.90
31837;DHT22;18401;49.344;6.240;2023-12-07T14:25:12;4.00;99.90
31837;DHT22;18401;49.344;6.240;2023-12-07T14:27:37;4.10;99.90
31837;DHT22;18401;49.344;6.240;2023-12-07T14:30:03;4.00;99.90
31837;DHT22;18401;49.344;6.240;2023-12-07T14:32:29;4.20;99.90
31837;DHT22;18401;49.344;6.240;2023-12-07T14:34:55;4.20;99.90
31837;DHT22;18401;49.344;6.240;2023-12-07T14:37:21;4.20;99.90
31837;DHT22;18401;49.344;6.240;2023-12-07T14:39:47;4.10;99.90
31837;DHT22;18401;49.344;6.240;2023-12-07T14:42:13;4.10;99.90
31837;DHT22;18401;49.344;6.240;2023-12-07T14:44:39;4.10;99.90
31837;DHT22;18401;49.344;6.240;2023-12-07T14:47:04;4.10;99.90
31837;DHT22;18401;49.344;6.240;2023-12-07T14:49:30;4.10;99.90
31837;DHT22;18401;49.344;6.240;2023-12-07T14:51:56;4.00;99.90
31837;DHT22;18401;49.344;6.240;2023-12-07T14:54:24;3.90;99.90
31837;DHT22;18401;49.344;6.240;2023-12-07T14:56:50;3.90;99.90
31837;DHT22;18401;49.344;6.240;2023-12-07T14:59:15;3.80;99.90
31837;DHT22;18401;49.344;6.240;2023-12-07T15:01:42;3.80;99.90
31837;DHT22;18401;49.344;6.240;2023-12-07T15:04:08;3.70;99.90
31837;DHT22;18401;49.344;6.240;2023-12-07T15:06:34;3.70;99.90
31837;DHT22;18401;49.344;6.240;2023-12-07T15:09:00;3.60;99.90
31837;DHT22;18401;49.344;6.240;2023-12-07T15:11:28;3.50;99.90
31837;DHT22;18401;49.344;6.240;2023-12-07T15:13:54;3.50;99.90
31837;DHT22;18401;49.344;6.240;2023-12-07T15:16:19;3.50;99.90
31837;DHT22;18401;49.344;6.240;2023-12-07T15:18:45;3.50;99.90
31837;DHT22;18401;49.344;6.240;2023-12-07T15:21:12;3.40;99.90
31837;DHT22;18401;49.344;6.240;2023-12-07T15:23:40;3.40;99.90
31837;DHT22;18401;49.344;6.240;2023-12-07T15:26:05;3.30;99.90
31837;DHT22;18401;49.344;6.240;2023-12-07T15:28:33;3.20;99.90
31837;DHT22;18401;49.344;6.240;2023-12-07T15:30:59;3.20;99.90
31837;DHT22;18401;49.344;6.240;2023-12-07T15:33:25;3.20;99.90
31837;DHT22;18401;49.344;6.240;2023-12-07T15:35:50;3.20;99.90
31837;DHT22;18401;49.344;6.240;2023-12-07T15:38:16;2.90;99.90
31837;DHT22;18401;49.344;6.240;2023-12-07T15:40:42;2.80;99.90
31837;DHT22;18401;49.344;6.240;2023-12-07T15:43:08;2.70;99.90